Latest Weather Observations for Middle Point

IDD60801

Issued at 10:35 pm CST Sunday 23 November 2014 (issued every 30 minutes, with the page automatically refreshed every 10 minutes)

About weather observations | Map of weather stations | Latest weather observations for NT | Other Formats
Station Details ID: 014041 Name: MIDDLE POINT Lat: -12.61 Lon: 131.30 Height: 14.1 m
Data from the previous 72 hours. | See also: Recent months at Middle Point
Date/Time
CST
Temp
°C
App
Temp
°C
Dew
Point
Rel
Hum
%
Delta-T
°C
Wind Press
QNH
hPa
Press
MSL
hPa
Rain
since 9 am
mm
Dir
 
Spd
km/h
Gust
km/h
Spd
kts
Gust
kts
23/10:30pm 27.6 32.2 23.8 80 2.6 NW 6 9 3 5 1009.5 1009.4 0.0
23/10:00pm 28.2 32.3 23.3 75 3.4 NNW 7 11 4 6 1009.0 1008.9 0.0
23/09:30pm 29.1 32.5 23.3 71 4.0 N 11 17 6 9 1008.5 1008.4 0.0
23/09:00pm 29.3 32.2 22.5 67 4.6 N 11 15 6 8 1008.4 1008.3 0.0
23/08:30pm 29.6 32.1 21.8 63 5.3 N 11 13 6 7 1008.2 1008.1 0.0
23/08:00pm 30.3 32.3 20.8 56 6.3 N 11 15 6 8 1007.9 1007.8 0.0
23/07:30pm 30.9 32.8 20.5 54 6.9 N 11 15 6 8 1007.3 1007.2 0.0
23/07:00pm 31.8 33.1 20.1 50 7.7 N 13 19 7 10 1006.9 1006.8 0.0
23/06:30pm 33.0 33.8 19.8 45 8.8 N 15 22 8 12 1006.6 1006.5 0.0
23/06:00pm 34.4 34.5 19.2 40 10.0 N 17 22 9 12 1006.4 1006.3 0.0
23/05:30pm 35.3 35.2 20.0 40 10.2 N 20 26 11 14 1006.0 1005.9 0.0
23/05:00pm 36.2 36.1 20.0 38 10.8 N 20 30 11 16 1005.9 1005.8 0.0
23/04:30pm 36.5 36.4 19.9 38 11.1 N 20 26 11 14 1006.2 1006.1 0.0
23/04:00pm 37.0 36.9 19.9 36 11.5 N 20 30 11 16 1006.4 1006.3 0.0
23/03:30pm 37.0 36.6 19.0 34 11.9 NNE 19 24 10 13 1006.6 1006.5 0.0
23/03:00pm 38.0 38.3 17.9 30 13.2 N 13 22 7 12 1006.9 1006.8 0.0
23/02:30pm 38.2 39.4 20.0 34 12.3 NNE 13 24 7 13 1007.4 1007.3 0.0
23/02:00pm 36.5 37.3 19.0 35 11.6 NNE 13 26 7 14 1008.0 1007.9 0.0
23/01:30pm 38.0 39.3 19.4 33 12.4 ENE 11 24 6 13 1008.3 1008.2 0.0
23/01:00pm 37.0 37.6 18.5 33 12.2 E 13 22 7 12 1009.0 1008.9 0.0
23/12:30pm 35.5 36.5 19.4 38 10.7 N 13 22 7 12 1009.8 1009.7 0.0
23/12:00pm 35.2 36.6 19.6 40 10.4 NNE 11 20 6 11 1010.3 1010.2 0.0
23/11:30am 35.4 36.5 19.7 39 10.5 NE 13 24 7 13 1010.7 1010.6 0.0
23/11:00am 33.9 36.1 19.6 43 9.5 NE 7 19 4 10 1011.1 1010.9 0.0
23/10:30am 33.2 35.2 20.7 47 8.4 NNE 11 19 6 10 1011.5 1011.3 0.0
23/10:00am 32.4 34.7 21.3 52 7.5 N 11 15 6 8 1011.6 1011.4 0.0
23/09:30am 32.9 36.2 21.4 50 7.8 NNE 6 15 3 8 1011.7 1011.5 0.0
23/09:00am 32.0 35.3 21.8 54 6.9 NE 7 15 4 8 1011.8 1011.6 0.0
23/08:30am 30.9 34.8 22.5 61 5.7 NE 6 9 3 5 1011.8 1011.6 0.0
23/08:00am 29.4 33.4 23.1 69 4.3 N 7 11 4 6 1011.8 1011.6 0.0
23/07:30am 27.9 31.6 23.3 76 3.1 NNE 9 13 5 7 1011.6 1011.4 0.0
23/07:00am 25.5 31.0 23.4 88 1.4 CALM 0 0 0 0 1011.4 1011.2 0.0
23/06:30am 24.1 28.9 22.2 89 1.3 CALM 0 0 0 0 1011.0 1010.8 0.0
23/06:00am 24.0 27.6 22.3 90 1.1 NNE 7 7 4 4 1010.3 1010.2 0.0
23/05:30am 23.8 27.4 22.1 90 1.1 NNE 6 7 3 4 1010.2 1010.1 0.0
23/05:00am 24.2 29.0 22.1 88 1.4 CALM 0 0 0 0 1010.1 1010.0 0.0
23/04:30am 24.2 28.1 22.5 90 1.1 N 6 6 3 3 1009.8 1009.7 0.0
23/04:00am 23.8 28.4 21.7 88 1.4 CALM 0 0 0 0 1009.7 1009.6 0.0
23/03:30am 24.5 29.2 22.0 86 1.7 CALM 0 0 0 0 1009.5 1009.4 0.0
23/03:00am 24.9 29.4 22.2 85 1.8 N 2 2 1 1 1009.6 1009.5 0.0
23/02:30am 25.0 29.2 22.5 86 1.7 N 4 6 2 3 1009.8 1009.7 0.0
23/02:00am 25.4 30.6 22.9 86 1.7 CALM 0 0 0 0 1009.8 1009.7 0.0
23/01:30am 25.7 30.8 22.6 83 2.1 CALM 0 0 0 0 1010.0 1009.9 0.0
23/01:00am 26.0 31.1 22.7 82 2.2 CALM 0 0 0 0 1010.3 1010.2 0.0
23/12:30am 26.6 30.7 22.9 80 2.5 N 6 7 3 4 1010.6 1010.5 0.0
23/12:00am 27.1 31.2 22.9 78 2.9 N 6 7 3 4 1010.9 1010.7 0.0
 
Date/Time
CST
Temp
°C
App
Temp
°C
Dew
Point
Rel
Hum
%
Delta-T
°C
Wind Press
QNH
hPa
Press
MSL
hPa
Rain
since 9 am
mm
Dir
 
Spd
km/h
Gust
km/h
Spd
kts
Gust
kts
22/11:30pm 27.3 32.0 22.7 76 3.1 N 2 2 1 1 1010.9 1010.7 0.0
22/11:00pm 27.1 30.8 22.3 75 3.2 N 6 6 3 3 1010.6 1010.5 0.0
22/10:30pm 27.0 30.4 21.7 73 3.5 NNW 6 6 3 3 1010.5 1010.4 0.0
22/10:00pm 27.2 30.5 21.9 73 3.6 N 7 9 4 5 1010.4 1010.3 0.0
22/09:30pm 27.8 31.1 21.8 70 4.0 NW 7 11 4 6 1010.1 1010.0 0.0
22/09:00pm 28.9 32.1 22.4 68 4.4 N 9 13 5 7 1009.6 1009.5 0.0
22/08:30pm 28.7 31.9 21.7 66 4.7 N 7 9 4 5 1009.5 1009.4 0.0
22/08:00pm 29.5 32.6 21.4 61 5.4 NNW 7 9 4 5 1009.4 1009.3 0.0
22/07:30pm 29.7 32.8 21.4 61 5.6 NNW 7 9 4 5 1008.9 1008.8 0.0
22/07:00pm 30.0 33.2 21.7 61 5.6 WSW 7 11 4 6 1008.6 1008.5 0.0
22/06:30pm 30.5 33.9 21.6 59 6.0 N 6 9 3 5 1008.0 1007.9 0.0
22/06:00pm 31.0 34.0 21.2 56 6.6 NW 7 13 4 7 1007.9 1007.8 0.0
22/05:30pm 31.3 34.1 21.5 56 6.6 NNW 9 17 5 9 1007.4 1007.3 0.0
22/05:00pm 31.5 33.8 21.4 55 6.8 NNW 11 15 6 8 1007.0 1006.9 0.0
22/04:30pm 32.5 33.5 21.7 53 7.3 N 19 24 10 13 1006.7 1006.6 0.0
22/04:00pm 35.3 35.6 20.4 41 10.0 N 19 26 10 14 1006.7 1006.6 0.0
22/03:30pm 36.1 36.0 19.5 37 11.1 N 19 30 10 16 1007.1 1007.0 0.0
22/03:00pm 38.0 37.7 17.4 29 13.4 ENE 15 24 8 13 1007.3 1007.2 0.0
22/02:30pm 38.0 38.4 16.3 27 13.9 SE 9 20 5 11 1007.8 1007.7 0.0
22/02:00pm 37.0 38.1 18.1 33 12.4 ESE 9 19 5 10 1008.5 1008.4 0.0
22/01:30pm 38.2 39.9 18.6 31 13.0 SSE 7 26 4 14 1008.9 1008.8 0.0
22/01:00pm 36.3 37.7 17.9 33 12.0 W 7 15 4 8 1009.4 1009.3 0.0
22/12:30pm 35.6 37.4 18.7 37 11.1 S 7 11 4 6 1010.1 1010.0 0.0
22/12:00pm 35.4 37.3 18.9 37 10.9 S 7 17 4 9 1010.5 1010.4 0.0
22/11:30am 34.7 37.8 21.4 46 9.0 E 7 19 4 10 1011.1 1010.9 0.0
22/11:00am 34.2 36.9 21.3 47 8.7 ENE 9 17 5 9 1011.6 1011.4 0.0
22/10:30am 32.9 35.4 22.4 54 7.2 ESE 13 24 7 13 1012.1 1011.9 0.0
22/10:00am 31.4 35.2 22.7 60 6.0 NE 7 11 4 6 1012.3 1012.1 0.0
22/09:30am 31.1 34.7 22.1 58 6.1 E 6 9 3 5 1012.3 1012.1 0.0
22/09:00am 31.0 34.6 22.3 60 5.9 E 7 15 4 8 1012.2 1012.0 0.0
22/08:30am 30.0 34.5 22.9 65 4.9 NNW 4 7 2 4 1012.1 1011.9 0.0
22/08:00am 29.7 34.4 23.4 69 4.3 N 4 7 2 4 1011.6 1011.4 0.0
22/07:30am 27.5 33.4 24.7 85 2.0 NNE 2 4 1 2 1011.4 1011.2 0.0
22/07:00am 25.4 30.9 24.0 92 1.0 N 2 4 1 2 1011.0 1010.8 0.0
22/06:30am 23.8 28.5 21.9 89 1.3 CALM 0 0 0 0 1010.3 1010.2 0.0
22/06:00am 24.5 28.4 22.6 89 1.3 ENE 6 6 3 3 1010.2 1010.1 0.0
22/05:30am 24.5 29.6 22.6 89 1.3 CALM 0 0 0 0 1009.9 1009.8 0.0
22/05:00am 24.1 28.8 22.0 88 1.4 CALM 0 0 0 0 1009.6 1009.5 0.0
22/04:30am 24.4 28.9 22.3 88 1.4 N 2 2 1 1 1009.3 1009.2 0.0
22/04:00am 24.5 28.7 22.4 88 1.4 N 4 6 2 3 1009.0 1008.9 0.0
22/03:30am 25.0 30.1 22.7 87 1.6 CALM 0 0 0 0 1008.8 1008.7 0.0
22/03:00am 25.0 29.0 22.7 87 1.6 N 6 6 3 3 1008.6 1008.5 0.0
22/02:30am 24.8 28.7 21.9 84 1.9 NNW 4 4 2 2 1008.8 1008.7 0.0
22/02:00am 25.6 29.5 22.5 83 2.1 NNW 6 6 3 3 1008.8 1008.7 0.0
22/01:30am 26.0 30.1 22.9 83 2.1 NNW 6 7 3 4 1009.0 1008.9 0.0
22/01:00am 26.6 30.6 23.1 81 2.4 NNW 7 7 4 4 1009.3 1009.2 0.0
22/12:30am 27.0 31.1 23.3 80 2.5 NNW 7 9 4 5 1009.8 1009.7 0.0
22/12:00am 26.9 30.8 22.9 79 2.7 NW 7 9 4 5 1010.1 1010.0 0.0
 
Date/Time
CST
Temp
°C
App
Temp
°C
Dew
Point
Rel
Hum
%
Delta-T
°C
Wind Press
QNH
hPa
Press
MSL
hPa
Rain
since 9 am
mm
Dir
 
Spd
km/h
Gust
km/h
Spd
kts
Gust
kts
21/11:30pm 27.5 31.2 23.3 78 2.9 NW 9 11 5 6 1010.5 1010.4 0.0
21/11:00pm 27.2 31.3 23.0 78 2.9 WNW 6 7 3 4 1010.6 1010.5 0.0
21/10:30pm 26.3 29.5 21.3 74 3.3 NW 6 7 3 4 1010.3 1010.2 0.0
21/10:00pm 27.5 31.0 21.8 71 3.8 NNW 6 7 3 4 1009.9 1009.8 0.0
21/09:30pm 27.9 31.4 21.9 70 4.0 NNW 6 9 3 5 1009.6 1009.5 0.0
21/09:00pm 28.0 31.3 21.8 69 4.2 N 7 7 4 4 1009.1 1009.0 0.0
21/08:30pm 28.4 31.1 21.4 66 4.7 N 9 9 5 5 1008.5 1008.4 0.0
21/08:00pm 29.2 31.6 20.9 61 5.5 N 9 13 5 7 1008.3 1008.2 0.0
21/07:30pm 30.1 31.8 20.1 55 6.6 N 11 13 6 7 1007.9 1007.8 0.0
21/07:00pm 30.9 31.9 18.6 48 8.0 N 11 15 6 8 1007.5 1007.4 0.0
21/06:30pm 32.6 32.2 18.0 41 9.4 N 17 22 9 12 1007.3 1007.2 0.0
21/06:00pm 33.3 31.9 17.1 38 10.4 N 20 26 11 14 1007.3 1007.2 0.0
21/05:30pm 34.5 32.9 15.9 33 11.7 NNE 19 28 10 15 1007.1 1007.0 0.0
21/05:00pm 34.1 32.3 15.5 32 11.6 N 19 26 10 14 1007.1 1007.0 0.0
21/04:30pm 35.5 33.8 17.2 33 11.8 NNE 22 30 12 16 1007.1 1007.0 0.0
21/04:00pm 36.3 35.9 18.8 35 11.5 NNE 19 32 10 17 1007.1 1007.0 0.0
21/03:30pm 36.4 36.0 20.2 38 10.9 N 22 35 12 19 1007.2 1007.1 0.0
21/03:00pm 37.1 37.7 19.5 35 11.7 NE 15 20 8 11 1007.5 1007.4 0.0
21/02:30pm 36.6 36.3 19.5 36 11.4 N 20 32 11 17 1007.8 1007.7 0.0
21/02:00pm 36.6 37.1 21.2 40 10.5 N 20 28 11 15 1008.0 1007.9 0.0
21/01:30pm 36.7 38.0 20.1 38 11.2 N 13 28 7 15 1008.4 1008.3 0.0
21/01:00pm 37.0 38.5 21.2 40 10.8 N 15 22 8 12 1008.9 1008.8 0.0
21/12:30pm 37.4 38.9 19.8 35 11.8 SE 11 19 6 10 1009.3 1009.2 0.0
21/12:00pm 35.8 37.1 20.1 40 10.5 NNE 13 20 7 11 1009.9 1009.8 0.0
21/11:30am 34.6 37.8 21.6 46 8.9 N 7 17 4 9 1010.6 1010.5 0.0
21/11:00am 34.1 37.8 20.8 45 8.9 N 2 6 1 3 1011.0 1010.8 0.0
21/10:30am 33.4 36.5 21.5 49 8.1 N 7 13 4 7 1011.4 1011.2 0.0
21/10:00am 33.7 37.2 21.8 49 8.1 NNE 6 11 3 6 1011.7 1011.5 0.0
21/09:30am 32.6 37.1 23.0 57 6.6 W 4 9 2 5 1011.9 1011.7 0.0
21/09:00am 30.9 35.0 22.2 59 5.9 N 4 7 2 4 1012.0 1011.8 0.0
21/08:30am 30.6 36.2 23.5 66 4.9 CALM 0 4 0 2 1011.9 1011.7 0.0
21/08:00am 28.9 34.5 23.6 73 3.6 CALM 0 0 0 0 1011.8 1011.6 0.0
21/07:30am 27.5 33.3 23.9 81 2.5 CALM 0 0 0 0 1011.6 1011.4 0.0
21/07:00am 26.3 31.7 23.8 86 1.7 SE 2 4 1 2 1011.3 1011.1 0.0
21/06:30am 25.7 31.3 23.6 88 1.4 CALM 0 0 0 0 1010.7 1010.6 0.0
21/06:00am 24.8 30.0 22.9 89 1.3 CALM 0 0 0 0 1010.3 1010.2 0.0
21/05:30am 24.1 28.7 21.8 87 1.5 CALM 0 0 0 0 1010.1 1010.0 0.0
21/05:00am 24.9 30.1 22.8 88 1.4 CALM 0 0 0 0 1009.9 1009.8 0.0
21/04:30am 24.6 29.2 22.5 88 1.4 NNW 2 4 1 2 1009.5 1009.4 0.0
21/04:00am 24.3 28.1 21.6 85 1.8 N 4 4 2 2 1009.3 1009.2 0.0
21/03:30am 25.3 29.7 22.8 86 1.7 NNW 4 4 2 2 1009.4 1009.3 0.0
21/03:00am 25.4 29.7 22.7 85 1.8 WNW 4 4 2 2 1009.2 1009.1 0.0
21/02:30am 25.3 29.0 22.6 85 1.8 WNW 7 11 4 6 1009.4 1009.3 0.0
21/02:00am 26.2 30.5 23.3 84 2.0 N 6 6 3 3 1009.7 1009.6 0.0
21/01:30am 25.9 30.5 23.2 85 1.8 NNE 4 6 2 3 1009.7 1009.6 0.0
21/01:00am 25.4 30.1 21.9 81 2.3 CALM 0 0 0 0 1009.6 1009.5 0.0
21/12:30am 26.3 31.0 22.6 80 2.5 N 2 4 1 2 1009.6 1009.5 0.0
21/12:00am 26.3 30.2 22.6 80 2.5 N 6 6 3 3 1009.7 1009.6 0.0
 
Date/Time
CST
Temp
°C
App
Temp
°C
Dew
Point
Rel
Hum
%
Delta-T
°C
Wind Press
QNH
hPa
Press
MSL
hPa
Rain
since 9 am
mm
Dir
 
Spd
km/h
Gust
km/h
Spd
kts
Gust
kts
20/11:30pm 26.0 29.4 21.7 77 2.9 NW 6 7 3 4 1009.7 1009.6 0.0
20/11:00pm 26.8 30.2 22.0 75 3.2 N 7 9 4 5 1009.8 1009.7 0.0

Other Formats:

Comma delimited format used in spreadsheet applications
http://www.bom.gov.au/fwo/IDD60801/IDD60801.95121.axf

JavaScript Object Notation format (JSON) in row-major order
http://www.bom.gov.au/fwo/IDD60801/IDD60801.95121.json